Time;durP1;ratioP1;P1;durP2;ratioP2;P2;SDS_P1;SDS_P2;PMS_P1;PMS_P2;Temp;Humidity;BMP_temperature;BMP_pressure;BME280_temperature;BME280_humidity;BME280_pressure;Samples;Min_cycle;Max_cycle;Signal;HPM_P1;HPM_P2
2023/11/12 00:00:09;;;;;;;12.52;10.00;;;;;;;7.39;100.00;99726.09;7390412;19;20447;-64
2023/11/12 00:02:36;;;;;;;12.02;10.75;;;;;;;7.35;100.00;99725.66;7392724;19;20356;-65
2023/11/12 00:05:03;;;;;;;12.23;11.03;;;;;;;7.37;100.00;99727.28;7390274;19;20455;-65
2023/11/12 00:07:30;;;;;;;12.65;11.35;;;;;;;7.37;100.00;99727.28;7389073;19;20431;-64
2023/11/12 00:09:56;;;;;;;13.45;11.93;;;;;;;7.37;100.00;99724.63;7391081;19;20349;-64
2023/11/12 00:12:23;;;;;;;14.13;12.20;;;;;;;7.38;100.00;99734.19;7393479;19;20344;-64
2023/11/12 00:14:50;;;;;;;13.68;12.25;;;;;;;7.40;100.00;99733.03;7394039;19;20441;-65
2023/11/12 00:17:17;;;;;;;14.10;12.57;;;;;;;7.41;100.00;99736.47;7393581;19;20447;-63
2023/11/12 00:19:44;;;;;;;15.45;12.68;;;;;;;7.41;100.00;99733.84;7392479;19;20356;-64
2023/11/12 00:22:12;;;;;;;14.63;13.07;;;;;;;7.42;100.00;99723.09;7390590;19;20836;-65
2023/11/12 00:24:39;;;;;;;15.10;13.50;;;;;;;7.45;100.00;99724.56;7391997;19;20357;-64
2023/11/12 00:27:06;;;;;;;14.63;13.23;;;;;;;7.48;100.00;99729.47;7389959;19;20349;-65
2023/11/12 00:29:33;;;;;;;14.98;13.45;;;;;;;7.48;100.00;99724.19;7390720;19;20343;-64
2023/11/12 00:32:03;;;;;;;15.60;14.07;;;;;;;7.47;100.00;99720.75;7390983;19;20389;-65
2023/11/12 00:34:31;;;;;;;14.77;13.25;;;;;;;7.45;100.00;99727.19;7393081;19;20357;-64
2023/11/12 00:36:57;;;;;;;15.65;13.73;;;;;;;7.43;100.00;99734.47;7393259;19;20371;-65
2023/11/12 00:39:26;;;;;;;15.37;13.77;;;;;;;7.41;100.00;99732.00;7388342;19;20431;-65
2023/11/12 00:41:53;;;;;;;17.13;15.47;;;;;;;7.39;100.00;99725.28;7391521;19;20361;-65
2023/11/12 00:44:21;;;;;;;17.42;15.13;;;;;;;7.39;100.00;99727.91;7388259;19;20372;-64
2023/11/12 00:46:48;;;;;;;15.70;14.13;;;;;;;7.38;100.00;99723.66;7389931;19;20348;-65
2023/11/12 00:49:15;;;;;;;18.30;14.18;;;;;;;7.37;100.00;99732.53;7392397;19;20891;-64
2023/11/12 00:51:41;;;;;;;16.93;15.07;;;;;;;7.37;100.00;99717.53;7391731;19;20372;-64
2023/11/12 00:54:08;;;;;;;16.15;14.45;;;;;;;7.35;100.00;99719.53;7391467;19;20876;-65
2023/11/12 00:56:35;;;;;;;16.90;15.10;;;;;;;7.33;100.00;99719.72;7390350;19;20366;-65
2023/11/12 00:59:05;;;;;;;16.00;14.30;;;;;;;7.33;100.00;99726.78;7388214;19;21310;-65
2023/11/12 01:01:32;;;;;;;16.73;14.50;;;;;;;7.32;100.00;99722.53;7389175;19;20428;-65
2023/11/12 01:04:00;;;;;;;16.35;14.85;;;;;;;7.31;100.00;99718.22;7387819;19;20380;-65
2023/11/12 01:06:27;;;;;;;16.23;14.57;;;;;;;7.28;100.00;99724.69;7389357;19;20360;-64
2023/11/12 01:08:54;;;;;;;16.10;14.40;;;;;;;7.30;100.00;99733.25;7390945;19;20329;-65
2023/11/12 01:11:21;;;;;;;16.55;14.80;;;;;;;7.30;100.00;99727.16;7387265;19;20359;-64
2023/11/12 01:13:48;;;;;;;16.02;14.35;;;;;;;7.30;100.00;99727.16;7386349;19;20369;-65
2023/11/12 01:16:15;;;;;;;15.48;13.55;;;;;;;7.28;100.00;99732.59;7382635;19;20401;-65
2023/11/12 01:18:42;;;;;;;14.63;13.18;;;;;;;7.26;100.00;99716.13;7383821;19;20399;-64
2023/11/12 01:21:09;;;;;;;16.52;13.35;;;;;;;7.24;100.00;99723.41;7388033;19;20332;-64
2023/11/12 01:23:37;;;;;;;14.52;13.15;;;;;;;7.21;100.00;99718.50;7386590;19;20683;-65
2023/11/12 01:26:04;;;;;;;14.27;12.82;;;;;;;7.19;100.00;99725.75;7388706;19;21063;-64
2023/11/12 01:28:32;;;;;;;14.23;12.75;;;;;;;7.15;100.00;99729.75;7390809;19;20394;-65
2023/11/12 01:31:00;;;;;;;15.20;13.68;;;;;;;7.17;100.00;99729.59;7390701;19;20931;-65
2023/11/12 01:33:27;;;;;;;15.60;14.00;;;;;;;7.13;100.00;99727.28;7386971;19;20761;-65
2023/11/12 01:35:55;;;;;;;15.45;13.80;;;;;;;7.17;100.00;99727.75;7396415;19;20361;-65
2023/11/12 01:38:22;;;;;;;17.67;14.50;;;;;;;7.17;100.00;99727.75;7398778;19;20357;-66
2023/11/12 01:40:49;;;;;;;15.93;14.32;;;;;;;7.20;100.00;99724.75;7395663;19;20716;-66
2023/11/12 01:43:16;;;;;;;16.67;14.67;;;;;;;7.19;100.00;99720.50;7399041;19;20428;-66
2023/11/12 01:45:43;;;;;;;17.60;15.70;;;;;;;7.19;100.00;99722.31;7396272;19;20420;-66
2023/11/12 01:48:13;;;;;;;16.90;15.30;;;;;;;7.19;100.00;99724.94;7397271;19;20333;-66
2023/11/12 01:50:42;;;;;;;17.20;15.50;;;;;;;7.14;100.00;99714.94;7395669;19;20366;-65
2023/11/12 01:53:13;;;;;;;17.50;15.70;;;;;;;7.13;100.00;99726.47;7396959;19;20917;-65
2023/11/12 01:55:40;;;;;;;17.20;15.40;;;;;;;7.10;100.00;99721.56;7394371;19;20360;-65
2023/11/12 01:58:11;;;;;;;18.70;16.88;;;;;;;7.09;100.00;99725.19;7396497;19;20407;-66
2023/11/12 02:00:39;;;;;;;19.65;17.73;;;;;;;7.06;100.00;99715.00;7395043;19;20403;-66
2023/11/12 02:03:09;;;;;;;19.17;17.38;;;;;;;7.06;100.00;99715.00;7393014;19;20348;-65
2023/11/12 02:05:36;;;;;;;20.10;18.13;;;;;;;7.04;100.00;99711.72;7398570;19;20336;-66
2023/11/12 02:08:05;;;;;;;20.00;18.00;;;;;;;7.02;100.00;99725.06;7396926;19;20385;-66
2023/11/12 02:10:35;;;;;;;20.52;18.38;;;;;;;7.02;100.00;99724.25;7388617;19;20426;-66
2023/11/12 02:13:06;;;;;;;20.50;18.60;;;;;;;7.02;100.00;99721.63;7396884;19;20352;-66
2023/11/12 02:15:34;;;;;;;20.48;18.58;;;;;;;7.01;100.00;99723.41;7395605;19;20375;-66
2023/11/12 02:18:01;;;;;;;21.83;19.73;;;;;;;7.00;100.00;99724.41;7397714;19;20363;-66
2023/11/12 02:20:28;;;;;;;20.80;18.80;;;;;;;7.02;100.00;99724.25;7392824;19;20408;-66
2023/11/12 02:22:55;;;;;;;22.20;20.10;;;;;;;7.02;100.00;99724.25;7395813;19;20427;-65
2023/11/12 02:25:22;;;;;;;22.05;19.85;;;;;;;7.04;100.00;99728.34;7393605;19;20397;-66
2023/11/12 02:27:49;;;;;;;22.45;20.25;;;;;;;7.03;100.00;99726.69;7396603;19;20349;-66
2023/11/12 02:30:18;;;;;;;22.25;20.17;;;;;;;7.02;100.00;99729.53;7396008;19;20344;-66
2023/11/12 02:32:47;;;;;;;22.77;20.58;;;;;;;7.04;100.00;99730.16;7389699;19;20388;-66
2023/11/12 02:35:14;;;;;;;23.45;21.23;;;;;;;7.02;100.00;99725.06;7396089;19;20365;-66
2023/11/12 02:37:41;;;;;;;23.52;21.23;;;;;;;7.04;100.00;99732.81;7394852;19;20692;-66
2023/11/12 02:40:08;;;;;;;23.45;21.25;;;;;;;7.00;100.00;99728.88;7393246;19;20463;-66
2023/11/12 02:42:37;;;;;;;23.02;20.77;;;;;;;6.98;100.00;99734.31;7395332;19;20715;-66
2023/11/12 02:45:10;;;;;;;24.30;22.02;;;;;;;6.97;100.00;99734.47;7395887;19;20359;-66
2023/11/12 02:47:37;;;;;;;24.60;21.50;;;;;;;6.96;100.00;99724.94;7396256;19;20373;-67
2023/11/12 02:50:17;;;;;;;24.10;21.88;;;;;;;6.97;100.00;99734.47;7391797;19;20356;-65
2023/11/12 02:52:43;;;;;;;24.77;22.53;;;;;;;6.94;100.00;99728.56;7392223;19;20977;-65
2023/11/12 02:55:10;;;;;;;23.45;21.35;;;;;;;6.94;100.00;99736.47;7394266;19;20357;-64
2023/11/12 02:57:37;;;;;;;23.88;21.58;;;;;;;6.92;100.00;99737.66;7391261;19;20368;-65
2023/11/12 03:00:08;;;;;;;24.38;21.98;;;;;;;6.91;100.00;99749.22;7394109;19;20364;-64
2023/11/12 03:02:35;;;;;;;24.25;21.95;;;;;;;6.90;100.00;99732.53;7392955;19;20361;-65
2023/11/12 03:05:02;;;;;;;24.38;21.92;;;;;;;6.90;100.00;99747.53;7394703;19;20381;-65
2023/11/12 03:07:29;;;;;;;24.75;22.35;;;;;;;6.89;100.00;99740.66;7391974;19;20361;-64
2023/11/12 03:09:57;;;;;;;24.90;22.55;;;;;;;6.90;100.00;99748.38;7391456;19;20373;-64
2023/11/12 03:12:24;;;;;;;25.17;22.75;;;;;;;6.89;100.00;99736.19;7393291;19;20435;-65
2023/11/12 03:14:51;;;;;;;24.65;22.33;;;;;;;6.88;100.00;99733.72;7391687;19;20372;-65
2023/11/12 03:17:17;;;;;;;24.88;22.48;;;;;;;6.88;100.00;99745.06;7394677;19;20356;-64
2023/11/12 03:19:44;;;;;;;24.85;22.55;;;;;;;6.89;100.00;99745.91;7392104;19;20431;-64
2023/11/12 03:22:11;;;;;;;25.42;23.02;;;;;;;6.92;100.00;99735.81;7394913;19;20718;-64
2023/11/12 03:24:38;;;;;;;24.77;22.45;;;;;;;6.92;100.00;99735.81;7392104;19;20381;-64
2023/11/12 03:27:05;;;;;;;24.33;21.95;;;;;;;6.92;100.00;99740.28;7394430;19;20381;-64
2023/11/12 03:29:32;;;;;;;24.10;21.80;;;;;;;6.91;100.00;99747.38;7390176;19;20854;-64
2023/11/12 03:31:59;;;;;;;23.35;21.20;;;;;;;6.93;100.00;99742.75;7385117;19;20377;-64
2023/11/12 03:34:26;;;;;;;23.65;21.42;;;;;;;6.96;100.00;99738.13;7389659;19;20344;-64
2023/11/12 03:36:53;;;;;;;24.03;21.80;;;;;;;6.95;100.00;99739.97;7391387;19;20341;-64
2023/11/12 03:39:19;;;;;;;24.08;21.70;;;;;;;6.93;100.00;99740.13;7392893;19;20344;-65
2023/11/12 03:41:46;;;;;;;21.92;19.85;;;;;;;6.88;100.00;99742.44;7393299;19;20375;-64
2023/11/12 03:44:14;;;;;;;23.48;21.17;;;;;;;6.88;100.00;99741.63;7390824;19;20356;-64
2023/11/12 03:46:41;;;;;;;21.77;19.60;;;;;;;6.83;100.00;99739.53;7395089;19;20354;-65
2023/11/12 03:49:08;;;;;;;22.45;20.05;;;;;;;6.81;100.00;99752.06;7392681;19;20353;-64
2023/11/12 03:51:35;;;;;;;22.27;20.27;;;;;;;6.78;100.00;99749.78;7391993;19;20403;-64
2023/11/12 03:54:02;;;;;;;23.08;20.90;;;;;;;6.76;100.00;99751.75;7393519;19;20368;-64
2023/11/12 03:56:29;;;;;;;23.60;21.42;;;;;;;6.73;100.00;99752.91;7390104;19;20377;-64
2023/11/12 03:58:57;;;;;;;23.58;21.33;;;;;;;6.70;100.00;99752.44;7391439;19;20710;-64
2023/11/12 04:01:24;;;;;;;24.52;22.23;;;;;;;6.67;100.00;99748.34;7391053;19;20364;-64
2023/11/12 04:03:52;;;;;;;24.85;22.40;;;;;;;6.62;100.00;99752.50;7391036;19;20369;-64
2023/11/12 04:06:19;;;;;;;24.60;22.10;;;;;;;6.53;100.00;99752.53;7393830;19;20341;-64
2023/11/12 04:08:46;;;;;;;25.85;23.15;;;;;;;6.47;100.00;99755.84;7390585;19;20348;-64
2023/11/12 04:11:13;;;;;;;27.10;24.50;;;;;;;6.41;100.00;99756.53;7393427;19;20876;-64
2023/11/12 04:13:40;;;;;;;26.73;24.10;;;;;;;6.35;100.00;99751.13;7393324;19;20872;-64
2023/11/12 04:16:08;;;;;;;27.17;24.65;;;;;;;6.30;100.00;99752.44;7394317;19;20376;-64
2023/11/12 04:18:36;;;;;;;27.98;25.33;;;;;;;6.25;100.00;99759.25;7390022;19;20364;-64
2023/11/12 04:21:05;;;;;;;28.92;26.33;;;;;;;6.21;100.00;99764.00;7393384;19;20377;-64
2023/11/12 04:23:32;;;;;;;29.55;26.70;;;;;;;6.16;100.00;99760.22;7394160;19;20361;-64
2023/11/12 04:26:00;;;;;;;29.52;26.52;;;;;;;6.12;100.00;99752.69;7391014;19;20352;-64
2023/11/12 04:28:28;;;;;;;28.80;25.80;;;;;;;6.09;100.00;99766.16;7390173;19;20371;-64
2023/11/12 04:30:56;;;;;;;29.67;26.80;;;;;;;6.06;100.00;99755.19;7393402;19;20430;-64
2023/11/12 04:33:24;;;;;;;29.85;26.75;;;;;;;6.06;100.00;99760.44;7390936;19;20383;-64
2023/11/12 04:35:52;;;;;;;29.60;26.55;;;;;;;6.03;100.00;99761.56;7390592;19;20336;-64
2023/11/12 04:38:20;;;;;;;30.23;27.13;;;;;;;6.00;100.00;99761.94;7393293;19;20348;-64
2023/11/12 04:40:49;;;;;;;31.13;28.10;;;;;;;6.01;100.00;99768.81;7392248;19;20463;-64
2023/11/12 04:43:16;;;;;;;30.13;27.08;;;;;;;5.97;100.00;99764.91;7388677;19;20416;-64
2023/11/12 04:45:43;;;;;;;28.38;25.60;;;;;;;5.96;100.00;99760.63;7392693;19;20722;-64
2023/11/12 04:48:11;;;;;;;28.73;25.92;;;;;;;5.96;100.00;99770.34;7392977;19;20347;-63
2023/11/12 04:50:38;;;;;;;28.15;25.33;;;;;;;5.96;100.00;99771.16;7392365;19;20378;-63
2023/11/12 04:53:06;;;;;;;28.92;26.10;;;;;;;5.94;100.00;99767.84;7390293;19;20377;-64
2023/11/12 04:55:34;;;;;;;27.40;24.70;;;;;;;5.97;100.00;99777.22;7390643;19;20427;-63
2023/11/12 04:58:06;;;;;;;27.67;25.00;;;;;;;5.94;100.00;99773.09;7391897;19;20442;-63
2023/11/12 05:00:33;;;;;;;28.27;25.57;;;;;;;5.96;100.00;99775.59;7389979;19;20385;-64
2023/11/12 05:03:04;;;;;;;28.42;25.60;;;;;;;5.96;100.00;99776.41;7388099;19;20371;-63
2023/11/12 05:05:32;;;;;;;27.55;24.75;;;;;;;5.97;100.00;99772.81;7391708;19;20364;-64
2023/11/12 05:07:59;;;;;;;28.65;25.85;;;;;;;5.98;100.00;99773.63;7391700;19;20408;-64
2023/11/12 05:10:26;;;;;;;27.25;24.55;;;;;;;5.97;100.00;99775.44;7395628;19;20544;-64
2023/11/12 05:13:11;;;;;;;28.08;25.27;;;;;;;5.99;100.00;99775.25;7395751;19;20385;-63
2023/11/12 05:15:38;;;;;;;27.10;24.42;;;;;;;5.98;100.00;99773.63;7398643;19;20416;-63
2023/11/12 05:18:06;;;;;;;27.10;24.30;;;;;;;5.97;100.00;99778.06;7398734;19;20381;-64
2023/11/12 05:20:33;;;;;;;26.52;23.83;;;;;;;5.99;100.00;99785.78;7398256;19;20395;-64
2023/11/12 05:23:01;;;;;;;26.88;24.10;;;;;;;6.00;100.00;99788.25;7399132;19;20360;-64
2023/11/12 05:25:28;;;;;;;26.52;23.83;;;;;;;6.01;100.00;99778.53;7398076;19;20882;-64
2023/11/12 05:27:55;;;;;;;26.58;23.80;;;;;;;6.01;100.00;99784.63;7397044;19;20364;-63
2023/11/12 05:30:23;;;;;;;25.63;22.98;;;;;;;6.05;100.00;99785.13;7399182;19;20348;-64
2023/11/12 05:32:51;;;;;;;24.57;22.07;;;;;;;6.06;100.00;99792.84;7394833;19;20369;-64
2023/11/12 05:35:19;;;;;;;25.33;22.80;;;;;;;6.10;100.00;99788.09;7400022;19;20360;-64
2023/11/12 05:37:49;;;;;;;23.40;21.08;;;;;;;6.12;100.00;99784.28;7398566;19;20353;-64
2023/11/12 05:40:16;;;;;;;23.80;21.30;;;;;;;6.17;100.00;99794.31;7397165;19;20356;-64
2023/11/12 05:42:43;;;;;;;24.40;21.20;;;;;;;6.22;100.00;99796.44;7399109;19;20368;-64
2023/11/12 05:45:10;;;;;;;24.35;21.85;;;;;;;6.26;100.00;99792.47;7398869;19;20439;-64
2023/11/12 05:47:37;;;;;;;24.40;21.67;;;;;;;6.28;100.00;99795.75;7399312;19;20706;-64
2023/11/12 05:50:04;;;;;;;22.52;20.42;;;;;;;6.29;100.00;99798.22;7395618;19;20523;-64
2023/11/12 05:52:30;;;;;;;24.02;21.58;;;;;;;6.29;100.00;99797.38;7398895;19;20365;-64
2023/11/12 05:54:57;;;;;;;23.15;20.67;;;;;;;6.28;100.00;99801.03;7399903;19;20331;-64
2023/11/12 05:57:24;;;;;;;22.90;20.50;;;;;;;6.27;100.00;99799.41;7396121;19;20379;-64
2023/11/12 05:59:53;;;;;;;23.33;21.05;;;;;;;6.24;100.00;99800.53;7398010;19;20356;-64
2023/11/12 06:02:20;;;;;;;23.25;20.75;;;;;;;6.22;100.00;99806.97;7395529;19;20361;-63
2023/11/12 06:04:47;;;;;;;23.58;21.20;;;;;;;6.18;100.00;99800.38;7398475;19;20371;-64
2023/11/12 06:07:13;;;;;;;23.77;21.27;;;;;;;6.13;100.00;99799.06;7397346;19;20345;-64
2023/11/12 06:09:40;;;;;;;23.73;21.23;;;;;;;6.13;100.00;99796.44;7397154;19;20359;-64
2023/11/12 06:12:07;;;;;;;23.73;21.33;;;;;;;6.13;100.00;99801.72;7397636;19;20879;-64
2023/11/12 06:14:36;;;;;;;22.75;20.33;;;;;;;6.13;100.00;99804.34;7397623;19;20360;-64
2023/11/12 06:17:04;;;;;;;22.90;20.15;;;;;;;6.15;100.00;99798.91;7396947;19;20362;-64
2023/11/12 06:19:31;;;;;;;23.02;19.90;;;;;;;6.16;100.00;99797.91;7397377;19;20377;-64
2023/11/12 06:22:00;;;;;;;22.45;20.10;;;;;;;6.17;100.00;99801.41;7397375;19;20351;-64
2023/11/12 06:24:27;;;;;;;22.30;20.00;;;;;;;6.20;100.00;99803.69;7396798;19;20382;-64
2023/11/12 06:26:54;;;;;;;23.00;19.77;;;;;;;6.22;100.00;99802.50;7396679;19;20716;-64
2023/11/12 06:29:21;;;;;;;21.98;19.67;;;;;;;6.24;100.00;99810.25;7397414;19;20405;-64
2023/11/12 06:31:48;;;;;;;22.33;19.52;;;;;;;6.27;100.00;99809.94;7392376;19;20908;-64
2023/11/12 06:34:14;;;;;;;21.65;19.48;;;;;;;6.32;100.00;99812.88;7390856;19;20359;-64
2023/11/12 06:36:41;;;;;;;21.83;19.67;;;;;;;6.35;100.00;99816.97;7391671;19;20364;-64
2023/11/12 06:39:13;;;;;;;21.20;18.90;;;;;;;6.37;100.00;99812.34;7395634;19;20839;-64
2023/11/12 06:41:41;;;;;;;20.55;18.52;;;;;;;6.41;100.00;99825.00;7395180;19;20352;-64
2023/11/12 06:44:08;;;;;;;20.63;18.48;;;;;;;6.42;100.00;99816.13;7392887;19;20345;-64
2023/11/12 06:46:45;;;;;;;20.83;18.83;;;;;;;6.47;100.00;99821.72;7397049;19;20357;-64
2023/11/12 06:49:12;;;;;;;21.15;19.05;;;;;;;6.52;100.00;99823.81;7395322;19;20352;-64
2023/11/12 06:51:38;;;;;;;20.48;18.38;;;;;;;6.57;100.00;99825.94;7396385;19;20907;-64
2023/11/12 06:54:06;;;;;;;20.77;18.45;;;;;;;6.60;100.00;99830.91;7395399;19;20389;-65
2023/11/12 06:56:36;;;;;;;18.88;16.88;;;;;;;6.62;100.00;99824.44;7393747;19;20367;-65
2023/11/12 06:59:03;;;;;;;20.45;17.15;;;;;;;6.67;100.00;99830.06;7395935;19;20681;-64
2023/11/12 07:01:31;;;;;;;17.73;15.93;;;;;;;6.71;100.00;99822.59;7394287;19;20380;-65
2023/11/12 07:03:59;;;;;;;20.60;16.65;;;;;;;6.78;100.00;99830.66;7394970;19;20345;-64
2023/11/12 07:06:26;;;;;;;17.17;15.47;;;;;;;6.85;100.00;99828.97;7396031;19;20443;-64
2023/11/12 07:08:53;;;;;;;17.23;15.55;;;;;;;6.89;100.00;99839.00;7391455;19;20868;-64
2023/11/12 07:11:19;;;;;;;18.02;15.35;;;;;;;6.92;100.00;99845.75;7393879;19;20375;-64
2023/11/12 07:13:46;;;;;;;18.63;15.90;;;;;;;6.93;100.00;99840.31;7392932;19;20418;-64
2023/11/12 07:16:17;;;;;;;17.73;15.23;;;;;;;6.97;100.00;99837.31;7396150;19;20434;-64
2023/11/12 07:18:44;;;;;;;16.52;14.75;;;;;;;7.00;100.00;99848.34;7395592;19;20355;-64
2023/11/12 07:21:27;;;;;;;16.30;14.40;;;;;;;7.04;100.00;99852.28;7396563;19;20369;-64
2023/11/12 07:23:55;;;;;;;15.90;14.00;;;;;;;7.08;100.00;99848.31;7393676;19;20870;-64
2023/11/12 07:26:24;;;;;;;15.88;14.10;;;;;;;7.13;100.00;99847.78;7396133;19;21642;-64
2023/11/12 07:28:51;;;;;;;16.30;13.43;;;;;;;7.19;100.00;99854.19;7394320;19;20343;-64
2023/11/12 07:31:20;;;;;;;15.95;13.57;;;;;;;7.22;100.00;99852.00;7392994;19;20364;-64
2023/11/12 07:33:46;;;;;;;14.15;12.65;;;;;;;7.28;100.00;99855.78;7391775;19;20364;-64
2023/11/12 07:36:13;;;;;;;15.40;12.67;;;;;;;7.30;100.00;99857.25;7392846;19;20395;-64
2023/11/12 07:38:40;;;;;;;14.00;12.07;;;;;;;7.31;100.00;99861.53;7394286;19;20879;-64
2023/11/12 07:41:08;;;;;;;16.10;12.18;;;;;;;7.34;99.94;99861.19;7385514;19;20401;-66
2023/11/12 07:43:35;;;;;;;14.00;12.07;;;;;;;7.39;99.87;99871.19;7394744;19;20356;-66
2023/11/12 07:46:03;;;;;;;15.07;11.20;;;;;;;7.43;99.31;99863.78;7394736;19;20380;-66
2023/11/12 07:48:30;;;;;;;13.52;12.02;;;;;;;7.49;99.48;99868.34;7394161;19;20376;-66
2023/11/12 07:50:58;;;;;;;11.50;10.27;;;;;;;7.54;98.80;99871.28;7393940;19;20391;-66
2023/11/12 07:53:28;;;;;;;11.70;10.02;;;;;;;7.56;98.34;99869.28;7390438;19;20365;-66
2023/11/12 07:55:55;;;;;;;11.20;9.98;;;;;;;7.60;97.93;99875.03;7392909;19;20344;-66
2023/11/12 07:58:22;;;;;;;11.73;10.20;;;;;;;7.60;97.70;99878.50;7395565;19;20923;-65
2023/11/12 08:00:48;;;;;;;11.18;9.68;;;;;;;7.59;96.90;99879.50;7394833;19;20369;-65
2023/11/12 08:03:15;;;;;;;10.60;9.50;;;;;;;7.60;96.78;99875.03;7393404;19;20886;-66
2023/11/12 08:05:42;;;;;;;10.55;9.45;;;;;;;7.60;96.57;99875.84;7395716;19;20864;-65
2023/11/12 08:08:09;;;;;;;12.88;10.10;;;;;;;7.60;96.54;99873.22;7391319;19;20870;-65
2023/11/12 08:10:39;;;;;;;11.35;9.75;;;;;;;7.61;96.26;99880.16;7391340;19;20371;-64
2023/11/12 08:13:06;;;;;;;11.18;9.40;;;;;;;7.63;96.25;99878.16;7391131;19;20367;-65
2023/11/12 08:15:32;;;;;;;10.98;9.85;;;;;;;7.60;95.91;99894.34;7392099;19;20370;-64
2023/11/12 08:17:59;;;;;;;11.43;10.32;;;;;;;7.66;96.47;99900.75;7391714;19;20884;-65
2023/11/12 08:20:26;;;;;;;11.38;10.20;;;;;;;7.66;96.14;99892.81;7392166;19;20385;-65
2023/11/12 08:22:53;;;;;;;11.07;9.85;;;;;;;7.68;96.11;99899.56;7392180;19;20864;-64
2023/11/12 08:25:20;;;;;;;11.77;10.52;;;;;;;7.71;96.17;99898.38;7389439;19;20358;-64
2023/11/12 08:27:46;;;;;;;14.13;10.63;;;;;;;7.76;96.54;99902.16;7390421;19;21477;-64
2023/11/12 08:30:13;;;;;;;11.13;10.00;;;;;;;7.81;96.04;99903.44;7391430;19;20344;-64
2023/11/12 08:32:40;;;;;;;11.63;10.52;;;;;;;7.86;96.15;99901.06;7391533;19;20898;-64
2023/11/12 08:35:07;;;;;;;10.73;9.57;;;;;;;7.90;95.97;99905.00;7391721;19;21036;-64
2023/11/12 08:37:35;;;;;;;11.68;10.48;;;;;;;7.95;95.98;99905.31;7391595;19;20431;-64
2023/11/12 08:40:03;;;;;;;11.52;10.35;;;;;;;7.98;95.29;99902.31;7392177;19;20352;-64
2023/11/12 08:42:29;;;;;;;11.40;10.20;;;;;;;7.99;95.00;99905.75;7393274;19;20386;-64
2023/11/12 08:44:56;;;;;;;11.43;9.93;;;;;;;8.04;94.72;99890.22;7399029;19;20725;-64
2023/11/12 08:47:23;;;;;;;11.68;9.63;;;;;;;8.08;94.39;99894.97;7399596;19;20919;-64
2023/11/12 08:49:50;;;;;;;10.15;9.18;;;;;;;8.08;93.55;99894.16;7397108;19;20337;-63
2023/11/12 08:52:17;;;;;;;10.30;9.30;;;;;;;8.13;93.41;99902.34;7397738;19;20367;-64
2023/11/12 08:54:45;;;;;;;11.13;10.00;;;;;;;8.15;93.54;99903.81;7388352;19;20371;-63
2023/11/12 08:57:12;;;;;;;9.98;8.98;;;;;;;8.19;92.27;99903.47;7398618;19;20910;-64
2023/11/12 08:59:39;;;;;;;11.00;9.77;;;;;;;8.25;93.20;99895.66;7398843;19;20366;-64
2023/11/12 09:02:06;;;;;;;9.75;8.85;;;;;;;8.28;91.96;99899.75;7398472;19;20353;-64
2023/11/12 09:04:36;;;;;;;10.90;9.80;;;;;;;8.29;92.03;99901.41;7396774;19;20348;-64
2023/11/12 09:07:03;;;;;;;11.10;9.43;;;;;;;8.32;91.79;99906.31;7395899;19;20898;-64
2023/11/12 09:09:32;;;;;;;10.65;9.65;;;;;;;8.34;91.50;99909.59;7398047;19;20352;-64
2023/11/12 09:12:00;;;;;;;11.18;10.05;;;;;;;8.41;92.21;99915.81;7398115;19;20763;-64
2023/11/12 09:14:27;;;;;;;11.60;9.48;;;;;;;8.44;92.08;99923.41;7396286;19;20424;-63
2023/11/12 09:16:53;;;;;;;10.15;9.07;;;;;;;8.45;90.69;99924.22;7398154;19;20470;-64
2023/11/12 09:19:20;;;;;;;9.32;8.40;;;;;;;8.41;89.81;99922.94;7398114;19;20355;-63
2023/11/12 09:21:47;;;;;;;10.25;8.55;;;;;;;8.43;90.01;99931.50;7396694;19;20368;-64
2023/11/12 09:24:14;;;;;;;9.35;8.45;;;;;;;8.44;90.60;99936.63;7397902;19;20344;-64
2023/11/12 09:26:41;;;;;;;10.60;8.30;;;;;;;8.48;90.41;99943.19;7396101;19;20379;-63
2023/11/12 09:29:09;;;;;;;8.77;7.97;;;;;;;8.46;89.18;99942.56;7398560;19;20345;-64
2023/11/12 09:31:36;;;;;;;9.60;8.18;;;;;;;8.48;89.31;99947.63;7398720;19;20348;-64
2023/11/12 09:34:03;;;;;;;9.27;7.87;;;;;;;8.46;89.44;99937.28;7393731;19;20762;-63
2023/11/12 09:36:29;;;;;;;8.00;7.20;;;;;;;8.49;89.53;99950.13;7398115;19;20373;-64
2023/11/12 09:38:56;;;;;;;8.60;7.72;;;;;;;8.53;89.20;99942.66;7394284;19;20348;-64
2023/11/12 09:41:23;;;;;;;8.40;7.43;;;;;;;8.51;88.01;99948.13;7396733;19;20873;-63
2023/11/12 09:43:54;;;;;;;10.02;7.75;;;;;;;8.54;88.55;99947.78;7396265;19;20353;-64
2023/11/12 09:46:22;;;;;;;9.13;7.70;;;;;;;8.64;88.56;99936.09;7397742;19;20450;-63
2023/11/12 09:48:50;;;;;;;8.20;7.40;;;;;;;8.69;88.35;99939.00;7395427;19;20706;-63
2023/11/12 09:51:18;;;;;;;8.45;7.30;;;;;;;8.74;87.76;99931.38;7396925;19;20365;-63
2023/11/12 09:53:50;;;;;;;8.52;7.25;;;;;;;8.76;87.17;99934.66;7395335;19;20701;-63
2023/11/12 09:56:17;;;;;;;8.40;7.00;;;;;;;8.85;87.13;99936.19;7394253;19;20368;-63
2023/11/12 09:58:45;;;;;;;8.80;7.90;;;;;;;8.87;86.99;99939.50;7394905;19;20368;-63
2023/11/12 10:01:13;;;;;;;7.80;6.80;;;;;;;8.90;86.08;99939.09;7392500;19;20372;-62
2023/11/12 10:03:46;;;;;;;8.13;6.70;;;;;;;8.92;85.72;99934.47;7395313;19;20365;-63
2023/11/12 10:06:14;;;;;;;7.97;7.15;;;;;;;8.97;86.53;99934.75;7396449;19;20873;-63
2023/11/12 10:08:41;;;;;;;9.30;6.95;;;;;;;9.03;86.33;99935.84;7396153;19;20444;-63
2023/11/12 10:11:22;;;;;;;9.02;6.95;;;;;;;9.04;85.71;99934.03;7394726;19;20399;-63
2023/11/12 10:13:51;;;;;;;7.90;6.85;;;;;;;9.08;85.31;99933.47;7394610;19;20344;-63
2023/11/12 10:16:23;;;;;;;8.55;6.75;;;;;;;9.10;84.96;99936.75;7394455;19;20852;-63
2023/11/12 10:19:05;;;;;;;7.55;6.50;;;;;;;9.12;85.19;99933.94;7391245;19;20332;-63
2023/11/12 10:21:32;;;;;;;9.70;6.60;;;;;;;9.18;84.59;99944.59;7396341;19;20894;-62
2023/11/12 10:24:06;;;;;;;8.65;6.95;;;;;;;9.22;84.49;99939.72;7395341;19;20352;-63
2023/11/12 10:26:38;;;;;;;8.07;6.68;;;;;;;9.30;84.90;99947.56;7392251;19;20369;-63
2023/11/12 10:29:07;;;;;;;9.18;6.80;;;;;;;9.39;85.09;99935.88;7393918;19;20502;-63
2023/11/12 10:31:37;;;;;;;7.55;6.60;;;;;;;9.50;85.17;99939.03;7394718;19;20368;-62
2023/11/12 10:34:05;;;;;;;8.17;6.47;;;;;;;9.57;84.78;99939.94;7391076;19;20411;-62
2023/11/12 10:36:31;;;;;;;7.85;6.72;;;;;;;9.69;85.60;99934.97;7395208;19;20371;-62
2023/11/12 10:39:05;;;;;;;7.90;6.32;;;;;;;9.82;84.89;99936.94;7393312;19;20355;-63
2023/11/12 10:41:35;;;;;;;6.57;5.68;;;;;;;9.85;82.80;99934.75;7395988;19;21151;-63
2023/11/12 10:44:02;;;;;;;7.63;5.90;;;;;;;9.83;81.64;99938.59;7396198;19;20480;-62
2023/11/12 10:46:35;;;;;;;6.80;5.40;;;;;;;9.89;82.47;99929.88;7393572;19;20488;-62
2023/11/12 10:49:04;;;;;;;6.70;6.00;;;;;;;9.93;82.20;99928.50;7392687;19;20407;-63
2023/11/12 10:51:32;;;;;;;7.82;6.00;;;;;;;9.98;82.43;99939.34;7394047;19;20487;-63
2023/11/12 10:54:02;;;;;;;6.85;5.47;;;;;;;10.07;82.29;99937.38;7385360;19;20425;-63
2023/11/12 10:56:29;;;;;;;6.80;5.80;;;;;;;10.13;82.25;99936.63;7386076;19;20389;-63
2023/11/12 10:58:57;;;;;;;7.03;5.55;;;;;;;10.21;82.41;99939.97;7387942;19;20352;-62
2023/11/12 11:01:26;;;;;;;6.35;4.97;;;;;;;10.24;80.68;99945.88;7388087;19;20397;-62
2023/11/12 11:03:54;;;;;;;6.90;4.70;;;;;;;10.17;80.42;99937.88;7385974;19;20360;-62
2023/11/12 11:06:22;;;;;;;6.40;4.63;;;;;;;10.14;79.83;99936.44;7387771;19;20882;-62
2023/11/12 11:08:49;;;;;;;6.07;4.80;;;;;;;10.13;79.68;99941.91;7393730;19;20349;-62
2023/11/12 11:11:17;;;;;;;8.07;4.97;;;;;;;10.08;79.26;99937.19;7393445;19;20372;-62
2023/11/12 11:13:46;;;;;;;5.85;4.63;;;;;;;10.04;79.10;99935.13;7393560;19;20382;-62
2023/11/12 11:16:48;;;;;;;5.78;4.53;;;;;;;10.07;79.25;99938.19;7393038;19;20436;-62
2023/11/12 11:19:15;;;;;;;7.57;4.70;;;;;;;10.08;79.21;99937.19;7389796;19;20368;-62
2023/11/12 11:22:20;;;;;;;6.33;4.67;;;;;;;10.11;78.47;99928.03;7392714;19;20403;-62
2023/11/12 11:24:47;;;;;;;6.18;4.60;;;;;;;10.09;78.45;99928.22;7394853;19;20433;-62